Terminal Aerodrome Forecast
Issued by NWS

Home | Current Version | Previous Version | Text Only | Print | Product List | Glossary On
Versions: 1 2 3 4 5 6 7 8 9 10 11 12 13 14 15 16 17 18 19 20 21 22 23 24 25 26 27 28
159
FTUS44 KFWD 032330
TAFFTW
TAF
KFTW 032330Z 0400/0424 05009KT 3SM -DZ BR OVC005
     FM040500 01008KT 3SM BR OVC003
     FM041800 36010KT P6SM OVC012
     FM042300 36009KT P6SM OVC025=

USA.gov is the U.S. government's official web portal to all federal, state and local government web resources and services.